KBIX

Keesler AFB Airport

Biloxi, Mississippi, USA
TAF KBIX 260200Z 2602/2708 VRB06KT 9999 SKC QNH2987INS BECMG 2609/2610 23009KT 9999 FEW030 QNH2983INS BECMG 2613/2614 27012G18KT 9000 -SHRA BKN018 QNH2981INS TEMPO 2614/2618 28015G25KT BECMG 2618/2619 28009KT 9999 NSW FEW020 QNH2984INS BECMG 2700/2701 33006KT 9999 FEW040 QNH2990INS TX25/2619Z TN18/2612Z LAST NO AMDS AFT 2604 NEXT 2610
Issued Valid From Valid To
Apr-26 @ 02:00 UTC
(4 hours ago)
Apr-26 @ 02:00 UTC
(4 hours ago)
Apr-27 @ 08:00 UTC
(-1 days ago)
Apr-26 @ 02:00 to Apr-26 @ 09:00
TAF KBIX 260200Z 2602/2708 VRB06KT 9999 SKC QNH2987INS
Wind Visibility Clouds Readings
Variable at 6 knots Greater than 6 miles
  • Clear skies
Altimeter 29.88" Hg
Pressure 1012 hPa
Becoming Apr-26 @ 09:00 to Apr-26 @ 13:00
BECMG 2609/2610 23009KT 9999 FEW030 QNH2983INS
Wind Visibility Clouds Readings
230° at 9 knots Greater than 6 miles
  • Few at 3,000' AGL
Altimeter 29.82" Hg
Pressure 1010 hPa
Becoming Apr-26 @ 13:00 to Apr-26 @ 18:00
BECMG 2613/2614 27012G18KT 9000 -SHRA BKN018 QNH2981INS
Wind Visibility Clouds Conditions Readings
270° at 12 knots
 Gusting to 18 knots
51/59 miles
  • Broken at 1,800' AGL
  • Light Rain
Altimeter 29.82" Hg
Pressure 1010 hPa
Temporary Apr-26 @ 14:00 to Apr-26 @ 18:00
TEMPO 2614/2618 28015G25KT
Wind
280° at 15 knots
 Gusting to 25 knots
Becoming Apr-26 @ 18:00 to Apr-27 @ 00:00
BECMG 2618/2619 28009KT 9999 NSW FEW020 QNH2984INS
Wind Visibility Clouds Conditions Readings
280° at 9 knots Greater than 6 miles
  • Few at 2,000' AGL
Altimeter 29.85" Hg
Pressure 1011 hPa
Becoming Apr-27 @ 00:00 to Apr-27 @ 08:00
BECMG 2700/2701 33006KT 9999 FEW040 QNH2990INS TX25/2619Z TN18/2612Z LAST NO AMDS AFT 2604 NEXT 2610
Wind Visibility Clouds Conditions Readings
330° at 6 knots Greater than 6 miles
  • Few at 4,000' AGL
Altimeter 29.91" Hg
Pressure 1013 hPa
TAF KBIX 260200Z 2602/2708 VRB06KT 9999 SKC QNH2987INS BECMG 2609/2610 23009KT 9999 FEW030 QNH2983INS BECMG 2613/2614 27012G18KT 9000 -SHRA BKN018 QNH2981INS TEMPO 2614/2618 28015G25KT BECMG 2618/2619 28009KT 9999 NSW FEW020 QNH2984INS BECMG 2700/2701 33006KT 9999 FEW040 QNH2990INS TX25/2619Z TN18/2612Z LAST NO AMDS AFT 2604 NEXT 2610
Issued Apr-26 @ 02:00 UTC
(4 hours ago)
Valid From Apr-26 @ 02:00 UTC
(4 hours ago)
Valid To Apr-27 @ 08:00 UTC
(-1 days ago)
Apr-26 @ 02:00 - Apr-26 @ 09:00
Wind Visibility
Variable at 6 knots Greater than 6 miles
Clouds
  • Clear skies
Becoming Apr-26 @ 09:00 - Apr-26 @ 13:00
Wind Visibility
230° at 9 knots Greater than 6 miles
Clouds
  • Few at 3,000' AGL
Becoming Apr-26 @ 13:00 - Apr-26 @ 18:00
Wind Visibility
270° at 12 knots
 Gusting to 18 knots
51/59 miles
Clouds
  • Broken at 1,800' AGL
Conditions
  • Light Rain
Temporary Apr-26 @ 14:00 - Apr-26 @ 18:00
Wind
280° at 15 knots
 Gusting to 25 knots
Becoming Apr-26 @ 18:00 - Apr-27 @ 00:00
Wind Visibility
280° at 9 knots Greater than 6 miles
Clouds
  • Few at 2,000' AGL
Conditions
Becoming Apr-27 @ 00:00 - Apr-27 @ 08:00
Wind Visibility
330° at 6 knots Greater than 6 miles
Clouds
  • Few at 4,000' AGL
Conditions